sensor_id;sensor_type;location;lat;lon;timestamp;pressure;altitude;pressure_sealevel;temperature;humidity
50710;BME280;37033;49.994;21.992;2022-09-09T00:01:07;98891.88;;;17.47;83.10
50710;BME280;37033;49.994;21.992;2022-09-09T00:04:03;98888.27;;;17.46;83.02
50710;BME280;37033;49.994;21.992;2022-09-09T00:07:01;98878.29;;;17.45;83.40
50710;BME280;37033;49.994;21.992;2022-09-09T00:10:00;98879.27;;;17.41;83.38
50710;BME280;37033;49.994;21.992;2022-09-09T00:12:57;98888.04;;;17.40;83.24
50710;BME280;37033;49.994;21.992;2022-09-09T00:15:57;98893.77;;;17.39;83.27
50710;BME280;37033;49.994;21.992;2022-09-09T00:18:56;98894.21;;;17.39;83.33
50710;BME280;37033;49.994;21.992;2022-09-09T00:21:53;98898.61;;;17.38;83.30
50710;BME280;37033;49.994;21.992;2022-09-09T00:24:48;98904.55;;;17.38;83.59
50710;BME280;37033;49.994;21.992;2022-09-09T00:27:43;98907.66;;;17.36;83.54
50710;BME280;37033;49.994;21.992;2022-09-09T00:30:36;98903.39;;;17.34;83.59
50710;BME280;37033;49.994;21.992;2022-09-09T00:33:28;98900.23;;;17.32;83.58
50710;BME280;37033;49.994;21.992;2022-09-09T00:36:23;98897.82;;;17.32;83.47
50710;BME280;37033;49.994;21.992;2022-09-09T00:39:21;98897.45;;;17.31;83.75
50710;BME280;37033;49.994;21.992;2022-09-09T00:42:16;98900.50;;;17.29;83.69
50710;BME280;37033;49.994;21.992;2022-09-09T00:45:26;98896.98;;;17.29;83.77
50710;BME280;37033;49.994;21.992;2022-09-09T00:48:24;98894.63;;;17.29;83.68
50710;BME280;37033;49.994;21.992;2022-09-09T00:51:17;98896.05;;;17.30;83.67
50710;BME280;37033;49.994;21.992;2022-09-09T00:54:25;98899.40;;;17.29;83.63
50710;BME280;37033;49.994;21.992;2022-09-09T00:57:25;98899.73;;;17.29;83.56
50710;BME280;37033;49.994;21.992;2022-09-09T01:00:25;98898.19;;;17.30;83.58
50710;BME280;37033;49.994;21.992;2022-09-09T01:03:32;98896.91;;;17.30;83.60
50710;BME280;37033;49.994;21.992;2022-09-09T01:06:31;98901.83;;;17.29;83.60
50710;BME280;37033;49.994;21.992;2022-09-09T01:09:24;98906.97;;;17.30;83.64
50710;BME280;37033;49.994;21.992;2022-09-09T01:12:23;98899.52;;;17.30;83.74
50710;BME280;37033;49.994;21.992;2022-09-09T01:15:18;98894.95;;;17.29;83.65
50710;BME280;37033;49.994;21.992;2022-09-09T01:18:12;98895.72;;;17.29;83.75
50710;BME280;37033;49.994;21.992;2022-09-09T01:21:13;98898.86;;;17.29;83.82
50710;BME280;37033;49.994;21.992;2022-09-09T01:24:27;98903.95;;;17.30;83.95
50710;BME280;37033;49.994;21.992;2022-09-09T01:27:22;98902.58;;;17.31;83.84
50710;BME280;37033;49.994;21.992;2022-09-09T01:30:16;98901.34;;;17.31;83.79
50710;BME280;37033;49.994;21.992;2022-09-09T01:33:09;98906.90;;;17.31;83.90
50710;BME280;37033;49.994;21.992;2022-09-09T01:36:07;98904.16;;;17.31;83.85
50710;BME280;37033;49.994;21.992;2022-09-09T01:38:59;98907.40;;;17.31;84.13
50710;BME280;37033;49.994;21.992;2022-09-09T01:41:49;98910.79;;;17.28;84.10
50710;BME280;37033;49.994;21.992;2022-09-09T01:44:40;98916.09;;;17.24;84.12
50710;BME280;37033;49.994;21.992;2022-09-09T01:47:30;98918.07;;;17.19;84.12
50710;BME280;37033;49.994;21.992;2022-09-09T01:50:21;98927.08;;;17.15;84.04
50710;BME280;37033;49.994;21.992;2022-09-09T01:53:12;98925.16;;;17.10;84.22
50710;BME280;37033;49.994;21.992;2022-09-09T01:56:12;98922.86;;;17.06;84.15
50710;BME280;37033;49.994;21.992;2022-09-09T01:59:13;98923.39;;;17.04;84.28
50710;BME280;37033;49.994;21.992;2022-09-09T02:02:13;98918.61;;;17.00;84.35
50710;BME280;37033;49.994;21.992;2022-09-09T02:05:15;98922.06;;;16.96;84.15
50710;BME280;37033;49.994;21.992;2022-09-09T02:08:09;98918.17;;;16.94;84.11
50710;BME280;37033;49.994;21.992;2022-09-09T02:11:01;98922.83;;;16.92;84.08
50710;BME280;37033;49.994;21.992;2022-09-09T02:13:54;98922.40;;;16.88;83.87
50710;BME280;37033;49.994;21.992;2022-09-09T02:16:49;98923.12;;;16.87;83.90
50710;BME280;37033;49.994;21.992;2022-09-09T02:19:41;98919.81;;;16.83;83.90
50710;BME280;37033;49.994;21.992;2022-09-09T02:22:35;98919.41;;;16.78;83.88
50710;BME280;37033;49.994;21.992;2022-09-09T02:25:30;98921.36;;;16.75;83.91
50710;BME280;37033;49.994;21.992;2022-09-09T02:28:21;98915.61;;;16.73;83.99
50710;BME280;37033;49.994;21.992;2022-09-09T02:31:14;98910.60;;;16.72;84.03
50710;BME280;37033;49.994;21.992;2022-09-09T02:34:10;98915.64;;;16.72;84.06
50710;BME280;37033;49.994;21.992;2022-09-09T02:37:02;98916.56;;;16.72;84.16
50710;BME280;37033;49.994;21.992;2022-09-09T02:39:54;98917.13;;;16.71;84.16
50710;BME280;37033;49.994;21.992;2022-09-09T02:42:46;98917.11;;;16.69;84.24
50710;BME280;37033;49.994;21.992;2022-09-09T02:45:41;98917.67;;;16.67;84.22
50710;BME280;37033;49.994;21.992;2022-09-09T02:48:38;98919.30;;;16.69;84.27
50710;BME280;37033;49.994;21.992;2022-09-09T02:51:39;98918.23;;;16.71;84.16
50710;BME280;37033;49.994;21.992;2022-09-09T02:54:32;98920.74;;;16.72;84.25
50710;BME280;37033;49.994;21.992;2022-09-09T02:57:27;98920.39;;;16.73;84.27
50710;BME280;37033;49.994;21.992;2022-09-09T03:00:25;98922.38;;;16.73;84.18
50710;BME280;37033;49.994;21.992;2022-09-09T03:03:16;98929.38;;;16.71;84.29
50710;BME280;37033;49.994;21.992;2022-09-09T03:06:07;98927.93;;;16.68;84.29
50710;BME280;37033;49.994;21.992;2022-09-09T03:08:57;98932.40;;;16.66;84.39
50710;BME280;37033;49.994;21.992;2022-09-09T03:11:49;98941.78;;;16.66;84.43
50710;BME280;37033;49.994;21.992;2022-09-09T03:14:39;98933.46;;;16.64;84.48
50710;BME280;37033;49.994;21.992;2022-09-09T03:17:30;98936.04;;;16.64;84.56
50710;BME280;37033;49.994;21.992;2022-09-09T03:20:21;98936.91;;;16.64;84.63
50710;BME280;37033;49.994;21.992;2022-09-09T03:23:11;98934.73;;;16.64;84.56
50710;BME280;37033;49.994;21.992;2022-09-09T03:26:02;98929.13;;;16.64;84.65
50710;BME280;37033;49.994;21.992;2022-09-09T03:28:52;98931.30;;;16.66;84.74
50710;BME280;37033;49.994;21.992;2022-09-09T03:31:43;98928.35;;;16.65;84.86
50710;BME280;37033;49.994;21.992;2022-09-09T03:34:33;98929.21;;;16.66;84.97
50710;BME280;37033;49.994;21.992;2022-09-09T03:37:24;98930.70;;;16.66;85.05
50710;BME280;37033;49.994;21.992;2022-09-09T03:40:15;98937.01;;;16.66;85.14
50710;BME280;37033;49.994;21.992;2022-09-09T03:43:06;98930.46;;;16.67;85.02
50710;BME280;37033;49.994;21.992;2022-09-09T03:45:57;98934.23;;;16.69;85.13
50710;BME280;37033;49.994;21.992;2022-09-09T03:48:48;98936.14;;;16.69;85.19
50710;BME280;37033;49.994;21.992;2022-09-09T03:51:38;98937.24;;;16.69;85.20
50710;BME280;37033;49.994;21.992;2022-09-09T03:54:29;98931.42;;;16.70;85.25
50710;BME280;37033;49.994;21.992;2022-09-09T03:57:19;98930.67;;;16.72;85.22
50710;BME280;37033;49.994;21.992;2022-09-09T04:00:12;98933.70;;;16.72;85.29
50710;BME280;37033;49.994;21.992;2022-09-09T04:03:02;98934.61;;;16.73;85.18
50710;BME280;37033;49.994;21.992;2022-09-09T04:05:53;98932.29;;;16.75;85.27
50710;BME280;37033;49.994;21.992;2022-09-09T04:08:44;98929.42;;;16.75;85.29
50710;BME280;37033;49.994;21.992;2022-09-09T04:11:37;98925.41;;;16.76;85.25
50710;BME280;37033;49.994;21.992;2022-09-09T04:14:27;98932.11;;;16.77;85.46
50710;BME280;37033;49.994;21.992;2022-09-09T04:17:17;98933.57;;;16.79;85.36
50710;BME280;37033;49.994;21.992;2022-09-09T04:20:09;98929.17;;;16.79;85.51
50710;BME280;37033;49.994;21.992;2022-09-09T04:23:00;98930.31;;;16.80;85.53
50710;BME280;37033;49.994;21.992;2022-09-09T04:25:51;98932.05;;;16.81;85.65
50710;BME280;37033;49.994;21.992;2022-09-09T04:28:42;98932.77;;;16.82;85.77
50710;BME280;37033;49.994;21.992;2022-09-09T04:31:35;98932.61;;;16.83;85.88
50710;BME280;37033;49.994;21.992;2022-09-09T04:34:26;98931.84;;;16.84;85.80
50710;BME280;37033;49.994;21.992;2022-09-09T04:37:17;98933.69;;;16.84;85.89
50710;BME280;37033;49.994;21.992;2022-09-09T04:40:09;98938.12;;;16.86;86.02
50710;BME280;37033;49.994;21.992;2022-09-09T04:43:01;98941.17;;;16.87;85.98
50710;BME280;37033;49.994;21.992;2022-09-09T04:45:51;98940.45;;;16.88;85.93
50710;BME280;37033;49.994;21.992;2022-09-09T04:48:42;98942.96;;;16.89;86.02
50710;BME280;37033;49.994;21.992;2022-09-09T04:51:32;98946.67;;;16.91;86.08
50710;BME280;37033;49.994;21.992;2022-09-09T04:54:22;98947.25;;;16.93;86.17
50710;BME280;37033;49.994;21.992;2022-09-09T04:57:14;98954.27;;;16.93;86.21
50710;BME280;37033;49.994;21.992;2022-09-09T05:00:06;98955.77;;;16.93;86.27
50710;BME280;37033;49.994;21.992;2022-09-09T05:02:57;98963.28;;;16.93;86.33
50710;BME280;37033;49.994;21.992;2022-09-09T05:05:47;98959.41;;;16.90;86.41
50710;BME280;37033;49.994;21.992;2022-09-09T05:08:39;98958.23;;;16.89;86.90
50710;BME280;37033;49.994;21.992;2022-09-09T05:11:31;98965.58;;;16.90;87.08
50710;BME280;37033;49.994;21.992;2022-09-09T05:14:24;98966.41;;;16.89;87.25
50710;BME280;37033;49.994;21.992;2022-09-09T05:17:15;98971.36;;;16.88;87.20
50710;BME280;37033;49.994;21.992;2022-09-09T05:20:06;98969.92;;;16.89;87.28
50710;BME280;37033;49.994;21.992;2022-09-09T05:22:57;98971.11;;;16.90;87.32
50710;BME280;37033;49.994;21.992;2022-09-09T05:25:57;98974.50;;;16.92;87.22
50710;BME280;37033;49.994;21.992;2022-09-09T05:28:48;98975.53;;;16.92;87.32
50710;BME280;37033;49.994;21.992;2022-09-09T05:31:38;98972.67;;;16.93;87.29
50710;BME280;37033;49.994;21.992;2022-09-09T05:34:30;98972.66;;;16.94;87.35
50710;BME280;37033;49.994;21.992;2022-09-09T05:37:20;98975.77;;;16.95;87.53
50710;BME280;37033;49.994;21.992;2022-09-09T05:40:12;98978.77;;;16.96;87.63
50710;BME280;37033;49.994;21.992;2022-09-09T05:43:03;98983.38;;;16.98;87.70
50710;BME280;37033;49.994;21.992;2022-09-09T05:46:04;98983.03;;;16.99;87.68
50710;BME280;37033;49.994;21.992;2022-09-09T05:48:55;98981.52;;;17.01;87.96
50710;BME280;37033;49.994;21.992;2022-09-09T05:51:47;98987.98;;;17.03;88.00
50710;BME280;37033;49.994;21.992;2022-09-09T05:54:39;98991.36;;;17.04;88.14
50710;BME280;37033;49.994;21.992;2022-09-09T05:57:30;98992.11;;;17.06;88.22
50710;BME280;37033;49.994;21.992;2022-09-09T06:00:20;98994.96;;;17.07;88.39
50710;BME280;37033;49.994;21.992;2022-09-09T06:03:12;98999.11;;;17.09;88.89
50710;BME280;37033;49.994;21.992;2022-09-09T06:06:04;99003.13;;;17.09;88.78
50710;BME280;37033;49.994;21.992;2022-09-09T06:08:56;99001.34;;;17.10;88.76
50710;BME280;37033;49.994;21.992;2022-09-09T06:11:47;99002.25;;;17.12;88.92
50710;BME280;37033;49.994;21.992;2022-09-09T06:14:37;99001.34;;;17.15;88.84
50710;BME280;37033;49.994;21.992;2022-09-09T06:17:27;99004.23;;;17.17;88.97
50710;BME280;37033;49.994;21.992;2022-09-09T06:20:18;99001.41;;;17.19;88.89
50710;BME280;37033;49.994;21.992;2022-09-09T06:23:10;99006.39;;;17.20;88.76
50710;BME280;37033;49.994;21.992;2022-09-09T06:26:06;99006.53;;;17.22;88.75
50710;BME280;37033;49.994;21.992;2022-09-09T06:28:57;99013.11;;;17.23;88.79
50710;BME280;37033;49.994;21.992;2022-09-09T06:31:48;99012.36;;;17.25;88.70
50710;BME280;37033;49.994;21.992;2022-09-09T06:34:38;99016.41;;;17.27;88.66
50710;BME280;37033;49.994;21.992;2022-09-09T06:37:29;99018.21;;;17.27;88.51
50710;BME280;37033;49.994;21.992;2022-09-09T06:40:19;99021.11;;;17.28;88.25
50710;BME280;37033;49.994;21.992;2022-09-09T06:43:10;99021.31;;;17.30;88.38
50710;BME280;37033;49.994;21.992;2022-09-09T06:46:01;99024.63;;;17.29;88.29
50710;BME280;37033;49.994;21.992;2022-09-09T06:48:52;99034.85;;;17.28;88.16
50710;BME280;37033;49.994;21.992;2022-09-09T06:51:44;99043.29;;;17.26;88.07
50710;BME280;37033;49.994;21.992;2022-09-09T06:54:35;99039.52;;;17.25;87.85
50710;BME280;37033;49.994;21.992;2022-09-09T06:57:26;99046.63;;;17.22;87.71
50710;BME280;37033;49.994;21.992;2022-09-09T07:00:16;99055.08;;;17.20;87.70
50710;BME280;37033;49.994;21.992;2022-09-09T07:03:06;99054.86;;;17.19;87.45
50710;BME280;37033;49.994;21.992;2022-09-09T07:05:57;99059.73;;;17.20;87.38
50710;BME280;37033;49.994;21.992;2022-09-09T07:08:54;99059.36;;;17.23;87.44
50710;BME280;37033;49.994;21.992;2022-09-09T07:11:45;99067.39;;;17.26;87.20
50710;BME280;37033;49.994;21.992;2022-09-09T07:14:36;99071.89;;;17.28;87.11
50710;BME280;37033;49.994;21.992;2022-09-09T07:17:27;99072.98;;;17.31;86.89
50710;BME280;37033;49.994;21.992;2022-09-09T07:20:17;99073.20;;;17.37;86.89
50710;BME280;37033;49.994;21.992;2022-09-09T07:23:08;99071.17;;;17.41;86.85
50710;BME280;37033;49.994;21.992;2022-09-09T07:25:59;99076.30;;;17.47;86.71
50710;BME280;37033;49.994;21.992;2022-09-09T07:28:50;99079.54;;;17.52;86.86
50710;BME280;37033;49.994;21.992;2022-09-09T07:31:42;99078.73;;;17.60;86.76
50710;BME280;37033;49.994;21.992;2022-09-09T07:34:32;99077.66;;;17.65;86.60
50710;BME280;37033;49.994;21.992;2022-09-09T07:37:23;99077.16;;;17.70;86.32
50710;BME280;37033;49.994;21.992;2022-09-09T07:40:14;99081.20;;;17.75;86.08
50710;BME280;37033;49.994;21.992;2022-09-09T07:43:04;99088.48;;;17.83;86.25
50710;BME280;37033;49.994;21.992;2022-09-09T07:46:00;99086.87;;;17.94;86.11
50710;BME280;37033;49.994;21.992;2022-09-09T07:48:52;99089.09;;;18.07;85.93
50710;BME280;37033;49.994;21.992;2022-09-09T07:51:46;99088.05;;;18.21;85.76
50710;BME280;37033;49.994;21.992;2022-09-09T07:54:36;99088.98;;;18.38;85.24
50710;BME280;37033;49.994;21.992;2022-09-09T07:57:26;99088.61;;;18.54;84.67
50710;BME280;37033;49.994;21.992;2022-09-09T08:00:19;99091.60;;;18.68;83.76
50710;BME280;37033;49.994;21.992;2022-09-09T08:03:10;99095.77;;;18.84;83.03
50710;BME280;37033;49.994;21.992;2022-09-09T08:06:05;99103.30;;;18.97;82.37
50710;BME280;37033;49.994;21.992;2022-09-09T08:08:56;99104.08;;;19.07;81.55
50710;BME280;37033;49.994;21.992;2022-09-09T08:11:47;99108.41;;;19.23;81.28
50710;BME280;37033;49.994;21.992;2022-09-09T08:14:37;99114.20;;;19.37;79.90
50710;BME280;37033;49.994;21.992;2022-09-09T08:17:29;99113.36;;;19.49;78.81
50710;BME280;37033;49.994;21.992;2022-09-09T08:20:19;99112.17;;;19.68;79.21
50710;BME280;37033;49.994;21.992;2022-09-09T08:23:11;99110.31;;;19.84;77.97
50710;BME280;37033;49.994;21.992;2022-09-09T08:26:07;99115.08;;;19.98;77.28
50710;BME280;37033;49.994;21.992;2022-09-09T08:29:00;99113.85;;;20.13;76.77
50710;BME280;37033;49.994;21.992;2022-09-09T08:32:24;99113.33;;;20.37;76.77
50710;BME280;37033;49.994;21.992;2022-09-09T08:35:15;99112.92;;;20.57;75.00
50710;BME280;37033;49.994;21.992;2022-09-09T08:38:06;99113.92;;;20.62;74.05
50710;BME280;37033;49.994;21.992;2022-09-09T08:41:03;99112.13;;;20.67;74.27
50710;BME280;37033;49.994;21.992;2022-09-09T08:44:03;99107.51;;;20.70;74.18
50710;BME280;37033;49.994;21.992;2022-09-09T08:47:02;99105.23;;;20.66;73.92
50710;BME280;37033;49.994;21.992;2022-09-09T08:50:16;99106.02;;;20.62;73.85
50710;BME280;37033;49.994;21.992;2022-09-09T08:53:17;99101.91;;;20.63;73.11
50710;BME280;37033;49.994;21.992;2022-09-09T08:56:13;99098.13;;;20.61;72.13
50710;BME280;37033;49.994;21.992;2022-09-09T08:59:04;99100.79;;;20.61;72.32
50710;BME280;37033;49.994;21.992;2022-09-09T09:02:02;99103.10;;;20.61;71.50
50710;BME280;37033;49.994;21.992;2022-09-09T09:05:14;99101.44;;;20.59;71.74
50710;BME280;37033;49.994;21.992;2022-09-09T09:08:16;99102.50;;;20.64;71.48
50710;BME280;37033;49.994;21.992;2022-09-09T09:11:08;99105.91;;;20.73;71.11
50710;BME280;37033;49.994;21.992;2022-09-09T09:14:02;99108.77;;;20.80;70.18
50710;BME280;37033;49.994;21.992;2022-09-09T09:16:56;99109.90;;;20.83;70.65
50710;BME280;37033;49.994;21.992;2022-09-09T09:19:47;99117.11;;;20.95;70.18
50710;BME280;37033;49.994;21.992;2022-09-09T09:22:43;99112.57;;;20.97;69.88
50710;BME280;37033;49.994;21.992;2022-09-09T09:25:39;99112.45;;;20.99;69.36
50710;BME280;37033;49.994;21.992;2022-09-09T09:28:33;99111.65;;;20.96;69.03
50710;BME280;37033;49.994;21.992;2022-09-09T09:31:25;99114.64;;;20.94;69.19
50710;BME280;37033;49.994;21.992;2022-09-09T09:34:15;99124.39;;;20.97;67.98
50710;BME280;37033;49.994;21.992;2022-09-09T09:37:15;99121.39;;;21.00;67.53
50710;BME280;37033;49.994;21.992;2022-09-09T09:40:13;99119.72;;;21.03;66.22
50710;BME280;37033;49.994;21.992;2022-09-09T09:43:05;99122.95;;;21.05;66.50
50710;BME280;37033;49.994;21.992;2022-09-09T09:45:58;99117.77;;;21.09;66.22
50710;BME280;37033;49.994;21.992;2022-09-09T09:48:58;99117.46;;;21.16;66.59
50710;BME280;37033;49.994;21.992;2022-09-09T09:51:49;99119.61;;;21.24;66.73
50710;BME280;37033;49.994;21.992;2022-09-09T09:54:43;99125.95;;;21.31;66.51
50710;BME280;37033;49.994;21.992;2022-09-09T09:57:34;99123.96;;;21.31;66.45
50710;BME280;37033;49.994;21.992;2022-09-09T10:00:25;99126.33;;;21.34;66.69
50710;BME280;37033;49.994;21.992;2022-09-09T10:03:24;99127.02;;;21.48;66.90
50710;BME280;37033;49.994;21.992;2022-09-09T10:06:15;99129.31;;;21.66;66.09
50710;BME280;37033;49.994;21.992;2022-09-09T10:09:23;99126.27;;;21.87;66.74
50710;BME280;37033;49.994;21.992;2022-09-09T10:12:23;99122.13;;;22.10;66.15
50710;BME280;37033;49.994;21.992;2022-09-09T10:15:29;99122.20;;;22.26;64.42
50710;BME280;37033;49.994;21.992;2022-09-09T10:18:35;99119.04;;;22.32;63.98
50710;BME280;37033;49.994;21.992;2022-09-09T10:21:40;99120.36;;;22.26;63.26
50710;BME280;37033;49.994;21.992;2022-09-09T10:25:08;99120.27;;;22.17;62.98
50710;BME280;37033;49.994;21.992;2022-09-09T10:28:33;99114.08;;;22.08;63.19
50710;BME280;37033;49.994;21.992;2022-09-09T10:31:33;99120.36;;;22.06;63.12
50710;BME280;37033;49.994;21.992;2022-09-09T10:34:47;99122.91;;;22.01;63.06
50710;BME280;37033;49.994;21.992;2022-09-09T10:38:03;99122.27;;;21.91;62.72
50710;BME280;37033;49.994;21.992;2022-09-09T10:41:12;99118.93;;;21.80;62.84
50710;BME280;37033;49.994;21.992;2022-09-09T10:44:25;99122.43;;;21.74;62.83
50710;BME280;37033;49.994;21.992;2022-09-09T10:47:36;99127.53;;;21.72;63.40
50710;BME280;37033;49.994;21.992;2022-09-09T10:50:45;99127.14;;;21.74;63.50
50710;BME280;37033;49.994;21.992;2022-09-09T10:53:46;99128.00;;;21.78;63.92
50710;BME280;37033;49.994;21.992;2022-09-09T10:56:56;99127.60;;;21.84;63.91
50710;BME280;37033;49.994;21.992;2022-09-09T10:59:50;99130.17;;;21.85;63.71
50710;BME280;37033;49.994;21.992;2022-09-09T11:02:42;99128.65;;;21.83;63.81
50710;BME280;37033;49.994;21.992;2022-09-09T11:05:39;99130.14;;;21.86;64.02
50710;BME280;37033;49.994;21.992;2022-09-09T11:08:34;99135.63;;;21.96;64.03
50710;BME280;37033;49.994;21.992;2022-09-09T11:11:29;99136.32;;;22.04;64.03
50710;BME280;37033;49.994;21.992;2022-09-09T11:14:28;99135.67;;;22.14;64.19
50710;BME280;37033;49.994;21.992;2022-09-09T11:17:22;99141.73;;;22.26;63.84
50710;BME280;37033;49.994;21.992;2022-09-09T11:20:15;99143.04;;;22.31;62.93
50710;BME280;37033;49.994;21.992;2022-09-09T11:23:09;99147.56;;;22.29;62.87
50710;BME280;37033;49.994;21.992;2022-09-09T11:26:03;99146.17;;;22.35;63.30
50710;BME280;37033;49.994;21.992;2022-09-09T11:29:04;99147.11;;;22.45;62.93
50710;BME280;37033;49.994;21.992;2022-09-09T11:32:08;99152.52;;;22.49;62.34
50710;BME280;37033;49.994;21.992;2022-09-09T11:35:14;99154.58;;;22.44;62.43
50710;BME280;37033;49.994;21.992;2022-09-09T11:38:18;99160.73;;;22.45;62.77
50710;BME280;37033;49.994;21.992;2022-09-09T11:41:10;99162.64;;;22.51;62.76
50710;BME280;37033;49.994;21.992;2022-09-09T11:44:12;99161.27;;;22.49;62.49
50710;BME280;37033;49.994;21.992;2022-09-09T11:47:03;99161.35;;;22.42;62.27
50710;BME280;37033;49.994;21.992;2022-09-09T11:50:29;99163.12;;;22.38;62.50
50710;BME280;37033;49.994;21.992;2022-09-09T11:53:26;99165.69;;;22.36;62.38
50710;BME280;37033;49.994;21.992;2022-09-09T11:56:25;99160.34;;;22.28;62.21
50710;BME280;37033;49.994;21.992;2022-09-09T11:59:23;99160.20;;;22.20;62.47
50710;BME280;37033;49.994;21.992;2022-09-09T12:02:17;99158.92;;;22.19;62.47
50710;BME280;37033;49.994;21.992;2022-09-09T12:05:12;99154.66;;;22.19;62.44
50710;BME280;37033;49.994;21.992;2022-09-09T12:08:04;99154.36;;;22.19;62.41
50710;BME280;37033;49.994;21.992;2022-09-09T12:10:57;99151.09;;;22.22;62.34
50710;BME280;37033;49.994;21.992;2022-09-09T12:13:56;99144.35;;;22.23;62.26
50710;BME280;37033;49.994;21.992;2022-09-09T12:16:46;99135.42;;;22.30;62.48
50710;BME280;37033;49.994;21.992;2022-09-09T12:19:37;99130.23;;;22.41;62.66
50710;BME280;37033;49.994;21.992;2022-09-09T12:22:37;99133.28;;;22.56;62.10
50710;BME280;37033;49.994;21.992;2022-09-09T12:25:36;99122.65;;;22.72;61.88
50710;BME280;37033;49.994;21.992;2022-09-09T12:28:41;99124.21;;;22.95;61.89
50710;BME280;37033;49.994;21.992;2022-09-09T12:31:41;99125.86;;;23.11;61.61
50710;BME280;37033;49.994;21.992;2022-09-09T12:34:38;99130.02;;;23.31;61.55
50710;BME280;37033;49.994;21.992;2022-09-09T12:37:34;99134.46;;;23.49;60.94
50710;BME280;37033;49.994;21.992;2022-09-09T12:40:26;99133.11;;;23.59;60.59
50710;BME280;37033;49.994;21.992;2022-09-09T12:43:21;99133.70;;;23.63;60.30
50710;BME280;37033;49.994;21.992;2022-09-09T12:46:20;99127.14;;;23.66;59.56
50710;BME280;37033;49.994;21.992;2022-09-09T12:49:27;99117.29;;;23.70;59.42
50710;BME280;37033;49.994;21.992;2022-09-09T12:52:26;99115.02;;;23.76;59.42
50710;BME280;37033;49.994;21.992;2022-09-09T12:55:20;99112.06;;;23.77;58.98
50710;BME280;37033;49.994;21.992;2022-09-09T12:58:15;99116.88;;;23.73;58.62
50710;BME280;37033;49.994;21.992;2022-09-09T13:01:17;99118.48;;;23.72;58.47
50710;BME280;37033;49.994;21.992;2022-09-09T13:04:21;99122.35;;;23.77;58.67
50710;BME280;37033;49.994;21.992;2022-09-09T13:07:13;99122.16;;;23.85;58.82
50710;BME280;37033;49.994;21.992;2022-09-09T13:10:09;99118.23;;;23.93;57.97
50710;BME280;37033;49.994;21.992;2022-09-09T13:13:00;99122.11;;;23.98;58.04
50710;BME280;37033;49.994;21.992;2022-09-09T13:15:53;99125.02;;;24.02;57.92
50710;BME280;37033;49.994;21.992;2022-09-09T13:18:45;99124.80;;;24.13;57.91
50710;BME280;37033;49.994;21.992;2022-09-09T13:21:37;99125.71;;;24.14;57.10
50710;BME280;37033;49.994;21.992;2022-09-09T13:24:30;99127.15;;;24.06;57.20
50710;BME280;37033;49.994;21.992;2022-09-09T13:27:28;99134.60;;;24.04;57.40
50710;BME280;37033;49.994;21.992;2022-09-09T13:30:28;99133.10;;;24.00;57.03
50710;BME280;37033;49.994;21.992;2022-09-09T13:33:23;99131.44;;;23.94;57.07
50710;BME280;37033;49.994;21.992;2022-09-09T13:36:14;99128.09;;;23.97;57.14
50710;BME280;37033;49.994;21.992;2022-09-09T13:39:05;99124.52;;;23.97;56.47
50710;BME280;37033;49.994;21.992;2022-09-09T13:42:05;99126.34;;;23.99;56.89
50710;BME280;37033;49.994;21.992;2022-09-09T13:44:56;99126.30;;;24.10;56.46
50710;BME280;37033;49.994;21.992;2022-09-09T13:47:47;99117.59;;;24.26;56.75
50710;BME280;37033;49.994;21.992;2022-09-09T13:50:41;99110.85;;;24.48;56.33
50710;BME280;37033;49.994;21.992;2022-09-09T13:53:31;99104.67;;;24.54;55.70
50710;BME280;37033;49.994;21.992;2022-09-09T13:56:22;99108.11;;;24.59;55.34
50710;BME280;37033;49.994;21.992;2022-09-09T13:59:14;99109.02;;;24.54;54.73
50710;BME280;37033;49.994;21.992;2022-09-09T14:02:04;99106.75;;;24.61;55.44
50710;BME280;37033;49.994;21.992;2022-09-09T14:04:55;99101.85;;;24.84;55.12
50710;BME280;37033;49.994;21.992;2022-09-09T14:07:45;99103.64;;;24.97;54.15
50710;BME280;37033;49.994;21.992;2022-09-09T14:10:35;99095.70;;;25.07;54.29
50710;BME280;37033;49.994;21.992;2022-09-09T14:13:25;99087.77;;;25.30;55.38
50710;BME280;37033;49.994;21.992;2022-09-09T14:16:16;99091.96;;;25.59;54.73
50710;BME280;37033;49.994;21.992;2022-09-09T14:19:08;99088.61;;;25.95;54.55
50710;BME280;37033;49.994;21.992;2022-09-09T14:21:59;99084.95;;;26.05;52.48
50710;BME280;37033;49.994;21.992;2022-09-09T14:24:50;99088.81;;;26.01;52.51
50710;BME280;37033;49.994;21.992;2022-09-09T14:27:40;99086.27;;;25.98;52.13
50710;BME280;37033;49.994;21.992;2022-09-09T14:30:31;99083.56;;;25.93;52.11
50710;BME280;37033;49.994;21.992;2022-09-09T14:33:21;99079.34;;;26.01;52.95
50710;BME280;37033;49.994;21.992;2022-09-09T14:36:12;99078.27;;;26.18;51.93
50710;BME280;37033;49.994;21.992;2022-09-09T14:39:04;99077.05;;;26.15;51.63
50710;BME280;37033;49.994;21.992;2022-09-09T14:41:54;99082.20;;;26.14;51.26
50710;BME280;37033;49.994;21.992;2022-09-09T14:44:45;99078.61;;;26.06;51.67
50710;BME280;37033;49.994;21.992;2022-09-09T14:47:36;99080.44;;;26.08;50.73
50710;BME280;37033;49.994;21.992;2022-09-09T14:50:27;99074.89;;;26.09;51.67
50710;BME280;37033;49.994;21.992;2022-09-09T14:53:18;99073.42;;;26.30;51.25
50710;BME280;37033;49.994;21.992;2022-09-09T14:56:11;99079.46;;;26.44;51.09
50710;BME280;37033;49.994;21.992;2022-09-09T14:59:02;99080.58;;;26.52;50.90
50710;BME280;37033;49.994;21.992;2022-09-09T15:01:52;99077.83;;;26.57;50.66
50710;BME280;37033;49.994;21.992;2022-09-09T15:04:43;99076.64;;;26.51;50.28
50710;BME280;37033;49.994;21.992;2022-09-09T15:07:34;99076.48;;;26.51;50.89
50710;BME280;37033;49.994;21.992;2022-09-09T15:10:25;99076.45;;;26.61;51.10
50710;BME280;37033;49.994;21.992;2022-09-09T15:13:16;99080.23;;;26.71;50.75